Time;durP1;ratioP1;P1;durP2;ratioP2;P2;SDS_P1;SDS_P2;PMS_P1;PMS_P2;Temp;Humidity;BMP_temperature;BMP_pressure;BME280_temperature;BME280_humidity;BME280_pressure;Samples;Min_cycle;Max_cycle;Signal;HPM_P1;HPM_P2
2023/07/21 00:01:16;;;;;;;3.03;2.05;;;;;;;;;;5114335;28;20023;-59
2023/07/21 00:03:43;;;;;;;1.42;0.73;;;;;;;;;;5111786;28;20023;-59
2023/07/21 00:06:11;;;;;;;0.85;0.30;;;;;;;;;;5108057;28;20503;-59
2023/07/21 00:08:38;;;;;;;1.65;0.73;;;;;;;;;;5108855;28;20048;-60
2023/07/21 00:11:05;;;;;;;0.85;0.50;;;;;;;;;;5108894;28;20093;-59
2023/07/21 00:13:36;;;;;;;1.00;0.50;;;;;;;;;;5110630;28;20057;-58
2023/07/21 00:16:06;;;;;;;1.70;0.77;;;;;;;;;;5114062;28;20027;-58
2023/07/21 00:18:34;;;;;;;1.40;0.68;;;;;;;;;;5113771;28;20047;-58
2023/07/21 00:21:05;;;;;;;1.13;0.65;;;;;;;;;;5113446;28;20504;-58
2023/07/21 00:23:35;;;;;;;4.28;1.13;;;;;;;;;;5117747;27;20053;-58
2023/07/21 00:26:02;;;;;;;0.68;0.45;;;;;;;;;;5122334;27;20027;-58
2023/07/21 00:28:30;;;;;;;0.45;0.32;;;;;;;;;;5127439;27;20031;-59
2023/07/21 00:30:56;;;;;;;0.20;0.20;;;;;;;;;;5129128;27;20028;-58
2023/07/21 00:33:25;;;;;;;1.15;0.38;;;;;;;;;;5109918;27;20031;-59
2023/07/21 00:35:52;;;;;;;1.42;0.38;;;;;;;;;;5109575;28;20097;-59
2023/07/21 00:38:18;;;;;;;1.35;0.65;;;;;;;;;;5113521;28;20152;-58
2023/07/21 00:40:46;;;;;;;1.05;0.52;;;;;;;;;;5122656;27;20057;-57
2023/07/21 00:43:15;;;;;;;0.10;0.10;;;;;;;;;;5134096;27;20062;-57
2023/07/21 00:45:41;;;;;;;1.65;0.57;;;;;;;;;;5134214;27;20382;-58
2023/07/21 00:48:08;;;;;;;0.35;0.20;;;;;;;;;;5132615;27;20034;-59
2023/07/21 00:50:45;;;;;;;0.20;0.20;;;;;;;;;;5128498;27;20083;-58
2023/07/21 00:53:12;;;;;;;0.15;0.15;;;;;;;;;;5128564;27;20493;-58
2023/07/21 00:55:41;;;;;;;0.77;0.40;;;;;;;;;;5128787;27;20529;-59
2023/07/21 00:58:09;;;;;;;0.20;0.20;;;;;;;;;;5117507;27;20126;-59
2023/07/21 01:00:37;;;;;;;0.37;0.20;;;;;;;;;;5113253;28;20020;-58
2023/07/21 01:03:05;;;;;;;1.13;0.53;;;;;;;;;;5113279;28;20016;-58
2023/07/21 01:05:34;;;;;;;0.17;0.13;;;;;;;;;;5113059;28;20035;-58
2023/07/21 01:08:04;;;;;;;3.53;0.50;;;;;;;;;;5113097;28;20485;-57
2023/07/21 01:10:33;;;;;;;1.90;0.57;;;;;;;;;;5110909;28;20496;-58
2023/07/21 01:13:01;;;;;;;0.37;0.27;;;;;;;;;;5107831;28;20073;-58
2023/07/21 01:15:28;;;;;;;0.60;0.40;;;;;;;;;;5107889;28;20035;-58
2023/07/21 01:17:55;;;;;;;0.10;0.10;;;;;;;;;;5107879;28;20472;-58
2023/07/21 01:20:27;;;;;;;0.83;0.43;;;;;;;;;;5108977;28;20019;-58
2023/07/21 01:23:00;;;;;;;1.60;0.60;;;;;;;;;;5112859;28;20107;-57
2023/07/21 01:25:28;;;;;;;0.87;0.40;;;;;;;;;;5112937;28;20034;-58
2023/07/21 01:27:55;;;;;;;1.87;0.60;;;;;;;;;;5112774;28;20050;-57
2023/07/21 01:30:22;;;;;;;10.93;1.20;;;;;;;;;;5112450;28;20028;-58
2023/07/21 01:32:51;;;;;;;0.83;0.47;;;;;;;;;;5127740;27;20434;-58
2023/07/21 01:35:18;;;;;;;0.87;0.60;;;;;;;;;;5128164;27;20023;-58
2023/07/21 01:37:46;;;;;;;0.87;0.60;;;;;;;;;;5127902;27;20027;-57
2023/07/21 01:40:14;;;;;;;1.60;0.60;;;;;;;;;;5128148;27;20437;-57
2023/07/21 01:42:41;;;;;;;0.17;0.17;;;;;;;;;;5129227;27;20371;-57
2023/07/21 01:45:08;;;;;;;0.90;0.50;;;;;;;;;;5133279;28;20366;-58
2023/07/21 01:47:35;;;;;;;0.90;0.73;;;;;;;;;;5133127;28;20080;-57
2023/07/21 01:50:06;;;;;;;0.30;0.30;;;;;;;;;;5133134;28;20523;-58
2023/07/21 01:52:35;;;;;;;1.20;0.50;;;;;;;;;;5126924;28;20036;-57
2023/07/21 01:55:09;;;;;;;0.50;0.40;;;;;;;;;;5111359;28;20023;-57
2023/07/21 01:57:38;;;;;;;0.28;0.15;;;;;;;;;;5107353;28;20117;-57
2023/07/21 02:00:13;;;;;;;1.10;0.57;;;;;;;;;;5107557;28;20036;-57
2023/07/21 02:02:44;;;;;;;0.77;0.47;;;;;;;;;;5107248;28;20035;-57
2023/07/21 02:05:25;;;;;;;0.63;0.23;;;;;;;;;;5108207;28;20032;-57
2023/07/21 02:07:52;;;;;;;0.27;0.27;;;;;;;;;;5112551;28;20096;-57
2023/07/21 02:10:19;;;;;;;8.57;0.33;;;;;;;;;;5112521;28;20531;-57
2023/07/21 02:12:46;;;;;;;15.17;0.60;;;;;;;;;;5112476;28;20099;-57
2023/07/21 02:15:14;;;;;;;0.60;0.33;;;;;;;;;;5112557;28;20099;-57
2023/07/21 02:17:41;;;;;;;0.30;0.30;;;;;;;;;;5110345;28;20188;-58
2023/07/21 02:20:09;;;;;;;0.00;0.00;;;;;;;;;;5106835;28;20497;-57
2023/07/21 02:22:44;;;;;;;0.60;0.23;;;;;;;;;;5107193;28;20066;-58
2023/07/21 02:25:13;;;;;;;0.53;0.30;;;;;;;;;;5107471;28;20028;-57
2023/07/21 02:27:40;;;;;;;0.13;0.13;;;;;;;;;;5108666;28;20035;-57
2023/07/21 02:30:07;;;;;;;0.33;0.07;;;;;;;;;;5111879;28;20024;-57
2023/07/21 02:32:34;;;;;;;0.00;0.00;;;;;;;;;;5112147;28;20019;-57
2023/07/21 02:35:01;;;;;;;0.23;0.10;;;;;;;;;;5111701;28;20019;-58
2023/07/21 02:37:28;;;;;;;0.00;0.00;;;;;;;;;;5112100;28;20046;-57
2023/07/21 02:39:56;;;;;;;0.13;0.10;;;;;;;;;;5110501;28;20065;-57
2023/07/21 02:42:23;;;;;;;3.73;0.30;;;;;;;;;;5108327;28;20019;-57
2023/07/21 02:44:50;;;;;;;0.10;0.10;;;;;;;;;;5110748;28;20077;-57
2023/07/21 02:47:17;;;;;;;0.20;0.20;;;;;;;;;;5110862;28;20032;-57
2023/07/21 02:49:44;;;;;;;0.20;0.10;;;;;;;;;;5111611;28;20490;-57
2023/07/21 02:52:11;;;;;;;0.30;0.20;;;;;;;;;;5115249;28;20051;-57
2023/07/21 02:54:38;;;;;;;0.77;0.30;;;;;;;;;;5115927;28;20028;-57
2023/07/21 02:57:06;;;;;;;0.17;0.00;;;;;;;;;;5115689;28;20122;-57
2023/07/21 02:59:33;;;;;;;0.27;0.23;;;;;;;;;;5115776;28;20020;-57
2023/07/21 03:02:00;;;;;;;0.10;0.10;;;;;;;;;;5114463;28;20019;-57
2023/07/21 03:04:28;;;;;;;0.20;0.20;;;;;;;;;;5110487;28;20020;-57
2023/07/21 03:06:55;;;;;;;0.00;0.00;;;;;;;;;;5110556;28;20053;-57
2023/07/21 03:09:22;;;;;;;0.63;0.30;;;;;;;;;;5110124;28;20072;-57
2023/07/21 03:11:49;;;;;;;0.00;0.00;;;;;;;;;;5110696;28;20483;-57
2023/07/21 03:14:16;;;;;;;0.30;0.20;;;;;;;;;;5115431;28;20024;-57
2023/07/21 03:16:42;;;;;;;1.73;0.27;;;;;;;;;;5115362;28;20470;-57
2023/07/21 03:19:10;;;;;;;0.47;0.20;;;;;;;;;;5115414;28;20474;-57
2023/07/21 03:21:37;;;;;;;0.00;0.00;;;;;;;;;;5115375;28;20467;-57
2023/07/21 03:24:05;;;;;;;1.40;0.30;;;;;;;;;;5114784;28;20024;-57
2023/07/21 03:26:32;;;;;;;0.20;0.20;;;;;;;;;;5109810;28;20428;-57
2023/07/21 03:28:59;;;;;;;0.40;0.10;;;;;;;;;;5110072;28;20370;-57
2023/07/21 03:31:26;;;;;;;0.00;0.00;;;;;;;;;;5109925;28;20027;-57
2023/07/21 03:33:52;;;;;;;0.77;0.10;;;;;;;;;;5109964;28;20047;-57
2023/07/21 03:36:20;;;;;;;4.23;0.40;;;;;;;;;;5114901;28;20031;-57
2023/07/21 03:38:47;;;;;;;0.30;0.10;;;;;;;;;;5114690;28;20048;-58
2023/07/21 03:41:14;;;;;;;0.53;0.27;;;;;;;;;;5114944;28;20020;-57
2023/07/21 03:43:41;;;;;;;1.47;0.40;;;;;;;;;;5114771;28;20386;-57
2023/07/21 03:46:08;;;;;;;0.10;0.10;;;;;;;;;;5114783;28;20377;-57
2023/07/21 03:48:35;;;;;;;0.10;0.10;;;;;;;;;;5109611;28;20098;-57
2023/07/21 03:51:03;;;;;;;0.00;0.00;;;;;;;;;;5109743;28;20032;-57
2023/07/21 03:53:30;;;;;;;0.90;0.30;;;;;;;;;;5109031;28;20059;-57
2023/07/21 03:55:57;;;;;;;0.20;0.10;;;;;;;;;;5109207;28;20016;-56
2023/07/21 03:58:24;;;;;;;0.30;0.10;;;;;;;;;;5093465;28;20115;-57
2023/07/21 04:00:50;;;;;;;0.03;0.03;;;;;;;;;;5093626;28;20106;-58
2023/07/21 04:03:18;;;;;;;0.63;0.20;;;;;;;;;;5094003;28;20020;-56
2023/07/21 04:05:45;;;;;;;0.43;0.17;;;;;;;;;;5094045;28;20059;-57
2023/07/21 04:08:13;;;;;;;0.10;0.10;;;;;;;;;;5093987;28;20051;-57
2023/07/21 04:10:43;;;;;;;2.93;0.23;;;;;;;;;;5089411;28;21833;-57
2023/07/21 04:13:10;;;;;;;0.77;0.33;;;;;;;;;;5088768;28;20429;-57
2023/07/21 04:15:37;;;;;;;0.03;0.03;;;;;;;;;;5088732;28;20020;-57
2023/07/21 04:18:05;;;;;;;5.20;0.40;;;;;;;;;;5088316;28;20101;-57
2023/07/21 04:20:31;;;;;;;2.03;0.37;;;;;;;;;;5092497;28;20414;-57
2023/07/21 04:22:58;;;;;;;1.53;0.30;;;;;;;;;;5093892;28;20095;-57
2023/07/21 04:25:42;;;;;;;;;;;;;;;;;;;;;
2023/07/21 04:28:09;;;;;;;0.50;0.40;;;;;;;;;;5091920;28;20038;-58
2023/07/21 04:30:35;;;;;;;0.90;0.30;;;;;;;;;;5093492;28;20024;-57
2023/07/21 04:33:03;;;;;;;0.87;0.67;;;;;;;;;;5120357;27;20027;-59
2023/07/21 04:35:31;;;;;;;1.30;0.30;;;;;;;;;;5108655;28;20375;-57
2023/07/21 04:37:59;;;;;;;0.87;0.43;;;;;;;;;;5108680;28;20106;-58
2023/07/21 04:40:26;;;;;;;4.10;0.23;;;;;;;;;;5108342;28;20327;-58
2023/07/21 04:42:52;;;;;;;1.17;0.50;;;;;;;;;;5112539;28;20019;-58
2023/07/21 04:45:19;;;;;;;1.53;0.73;;;;;;;;;;5113553;28;20028;-58
2023/07/21 04:47:49;;;;;;;1.30;0.57;;;;;;;;;;5113535;28;20020;-57
2023/07/21 04:50:15;;;;;;;0.40;0.33;;;;;;;;;;5095286;28;20752;-58
2023/07/21 04:52:42;;;;;;;0.57;0.40;;;;;;;;;;5113176;28;20035;-58
2023/07/21 04:55:09;;;;;;;2.33;0.57;;;;;;;;;;5109271;28;20482;-57
2023/07/21 04:57:36;;;;;;;1.13;0.60;;;;;;;;;;5108227;28;20032;-57
2023/07/21 05:00:03;;;;;;;1.80;0.60;;;;;;;;;;5108196;28;20024;-57
2023/07/21 05:02:30;;;;;;;1.20;0.90;;;;;;;;;;5107902;28;20094;-58
2023/07/21 05:05:01;;;;;;;0.60;0.50;;;;;;;;;;5110772;28;20367;-57
2023/07/21 05:07:27;;;;;;;2.43;0.80;;;;;;;;;;5113250;28;20027;-58
2023/07/21 05:09:57;;;;;;;0.57;0.30;;;;;;;;;;5113225;28;20049;-57
2023/07/21 05:12:25;;;;;;;0.83;0.70;;;;;;;;;;5113401;28;20050;-58
2023/07/21 05:14:52;;;;;;;1.33;0.77;;;;;;;;;;5112948;28;20083;-58
2023/07/21 05:17:19;;;;;;;0.37;0.33;;;;;;;;;;5109095;28;20093;-58
2023/07/21 05:19:46;;;;;;;0.83;0.60;;;;;;;;;;5107553;28;20129;-58
2023/07/21 05:22:13;;;;;;;2.00;0.87;;;;;;;;;;5107636;28;20228;-58
2023/07/21 05:24:40;;;;;;;1.20;0.53;;;;;;;;;;5107834;28;20153;-58
2023/07/21 05:27:07;;;;;;;2.77;0.60;;;;;;;;;;5110516;28;20075;-58
2023/07/21 05:29:34;;;;;;;22.93;0.87;;;;;;;;;;5112985;28;20035;-58
2023/07/21 05:32:03;;;;;;;0.83;0.50;;;;;;;;;;5112919;28;20024;-57
2023/07/21 05:34:32;;;;;;;0.57;0.50;;;;;;;;;;5112651;28;20032;-58
2023/07/21 05:37:00;;;;;;;0.70;0.60;;;;;;;;;;5112633;28;20791;-58
2023/07/21 05:39:30;;;;;;;0.60;0.57;;;;;;;;;;5109037;28;20030;-58
2023/07/21 05:41:57;;;;;;;1.43;0.93;;;;;;;;;;5107485;28;20027;-58
2023/07/21 05:44:24;;;;;;;2.13;0.80;;;;;;;;;;5107312;28;20031;-58
2023/07/21 05:46:51;;;;;;;0.40;0.40;;;;;;;;;;5107573;28;20073;-58
2023/07/21 05:49:18;;;;;;;1.40;0.60;;;;;;;;;;5110322;28;20530;-58
2023/07/21 05:51:45;;;;;;;1.13;0.63;;;;;;;;;;5112273;28;20070;-58
2023/07/21 05:54:12;;;;;;;0.63;0.53;;;;;;;;;;5112620;28;20534;-58
2023/07/21 05:56:39;;;;;;;1.77;1.00;;;;;;;;;;5112787;28;20034;-57
2023/07/21 05:59:06;;;;;;;0.60;0.60;;;;;;;;;;5112537;28;20062;-57
2023/07/21 06:01:34;;;;;;;0.77;0.67;;;;;;;;;;5109251;28;20020;-57
2023/07/21 06:04:01;;;;;;;0.97;0.70;;;;;;;;;;5107089;28;20040;-57
2023/07/21 06:06:29;;;;;;;4.27;1.07;;;;;;;;;;5088924;28;20118;-58
2023/07/21 06:08:56;;;;;;;0.90;0.67;;;;;;;;;;5106803;28;20031;-57
2023/07/21 06:11:24;;;;;;;1.33;0.50;;;;;;;;;;5109622;28;20051;-57
2023/07/21 06:13:51;;;;;;;2.13;0.60;;;;;;;;;;5112482;28;20462;-57
2023/07/21 06:16:17;;;;;;;2.23;0.60;;;;;;;;;;5113547;28;20525;-58
2023/07/21 06:18:45;;;;;;;1.90;1.03;;;;;;;;;;5116299;28;20038;-58
2023/07/21 06:21:12;;;;;;;2.40;1.20;;;;;;;;;;5116447;28;20024;-58
2023/07/21 06:23:39;;;;;;;1.37;0.60;;;;;;;;;;5113945;28;20339;-57
2023/07/21 06:26:06;;;;;;;1.60;1.03;;;;;;;;;;5110828;28;20494;-58
2023/07/21 06:28:33;;;;;;;1.27;0.73;;;;;;;;;;5110759;28;20357;-58
2023/07/21 06:31:00;;;;;;;1.37;0.93;;;;;;;;;;5111200;28;20024;-57
2023/07/21 06:33:26;;;;;;;1.03;0.80;;;;;;;;;;5112889;28;20095;-57
2023/07/21 06:35:54;;;;;;;2.93;1.40;;;;;;;;;;5116057;28;20031;-57
2023/07/21 06:38:20;;;;;;;2.87;0.93;;;;;;;;;;5115942;28;20047;-57
2023/07/21 06:40:47;;;;;;;1.07;0.67;;;;;;;;;;5116138;28;20019;-58
2023/07/21 06:43:14;;;;;;;1.10;0.60;;;;;;;;;;5115785;28;20019;-57
2023/07/21 06:45:41;;;;;;;1.27;0.90;;;;;;;;;;5113744;28;20026;-58
2023/07/21 06:48:08;;;;;;;1.03;0.70;;;;;;;;;;5110529;28;20487;-58
2023/07/21 06:50:37;;;;;;;1.63;0.77;;;;;;;;;;5110384;28;20038;-58
2023/07/21 06:53:05;;;;;;;0.60;0.60;;;;;;;;;;5110209;28;20071;-58
2023/07/21 06:55:36;;;;;;;1.33;0.83;;;;;;;;;;5111944;28;20051;-57
2023/07/21 06:58:03;;;;;;;6.90;0.97;;;;;;;;;;5115109;28;20043;-58
2023/07/21 07:00:30;;;;;;;4.63;1.00;;;;;;;;;;5115829;28;20042;-57
2023/07/21 07:02:57;;;;;;;5.90;1.70;;;;;;;;;;5115712;28;20024;-57
2023/07/21 07:05:28;;;;;;;1.73;0.83;;;;;;;;;;5115502;28;20094;-58
2023/07/21 07:07:55;;;;;;;1.80;1.13;;;;;;;;;;5113576;28;20442;-57
2023/07/21 07:10:22;;;;;;;1.33;1.00;;;;;;;;;;5109958;28;20027;-57
2023/07/21 07:12:50;;;;;;;1.90;0.90;;;;;;;;;;5110050;28;20508;-58
2023/07/21 07:15:17;;;;;;;0.30;0.30;;;;;;;;;;5110113;28;20028;-57
2023/07/21 07:17:44;;;;;;;1.50;0.93;;;;;;;;;;5111278;28;20084;-57
2023/07/21 07:20:11;;;;;;;1.93;0.80;;;;;;;;;;5115433;28;20023;-58
2023/07/21 07:22:38;;;;;;;1.13;0.90;;;;;;;;;;5115543;28;20046;-57
2023/07/21 07:25:05;;;;;;;2.10;0.90;;;;;;;;;;5115480;28;20024;-57
2023/07/21 07:27:33;;;;;;;0.63;0.57;;;;;;;;;;5114335;28;20099;-57
2023/07/21 07:30:00;;;;;;;2.33;1.03;;;;;;;;;;5113022;28;20020;-59
2023/07/21 07:32:26;;;;;;;5.53;1.33;;;;;;;;;;5109767;28;20019;-57
2023/07/21 07:34:56;;;;;;;2.93;1.43;;;;;;;;;;5109904;28;20479;-57
2023/07/21 07:37:24;;;;;;;0.83;0.60;;;;;;;;;;5109754;28;20521;-57
2023/07/21 07:39:51;;;;;;;0.80;0.70;;;;;;;;;;5110315;28;20050;-57
2023/07/21 07:42:18;;;;;;;0.67;0.60;;;;;;;;;;5114690;28;20497;-58
2023/07/21 07:44:45;;;;;;;0.73;0.53;;;;;;;;;;5114530;28;20157;-57
2023/07/21 07:47:12;;;;;;;2.00;1.17;;;;;;;;;;5114686;28;20019;-57
2023/07/21 07:49:38;;;;;;;1.03;0.70;;;;;;;;;;5114944;28;20103;-57
2023/07/21 07:52:08;;;;;;;0.93;0.70;;;;;;;;;;5113554;28;20027;-57
2023/07/21 07:54:36;;;;;;;8.63;1.40;;;;;;;;;;5109127;28;20477;-57
2023/07/21 07:57:03;;;;;;;1.50;1.03;;;;;;;;;;5109190;28;20390;-57
2023/07/21 07:59:30;;;;;;;1.67;1.17;;;;;;;;;;5109345;28;20038;-57
2023/07/21 08:01:58;;;;;;;2.63;1.03;;;;;;;;;;5108954;28;20027;-58
2023/07/21 08:04:25;;;;;;;1.70;0.77;;;;;;;;;;5114355;28;20024;-57
2023/07/21 08:06:52;;;;;;;1.83;0.83;;;;;;;;;;5114468;28;20026;-58
2023/07/21 08:09:19;;;;;;;1.80;0.93;;;;;;;;;;5114414;28;20054;-57
2023/07/21 08:11:46;;;;;;;1.93;0.97;;;;;;;;;;5114343;28;20027;-57
2023/07/21 08:14:13;;;;;;;1.30;0.80;;;;;;;;;;5113909;28;20119;-58
2023/07/21 08:16:39;;;;;;;2.00;1.17;;;;;;;;;;5108655;28;20019;-57
2023/07/21 08:19:06;;;;;;;3.47;1.50;;;;;;;;;;5108648;28;20110;-57
2023/07/21 08:21:33;;;;;;;1.30;0.80;;;;;;;;;;5108698;28;20023;-57
2023/07/21 08:24:00;;;;;;;2.63;1.20;;;;;;;;;;5108741;28;20093;-57
2023/07/21 08:26:26;;;;;;;1.20;0.93;;;;;;;;;;5114021;28;20026;-57
2023/07/21 08:28:55;;;;;;;1.53;1.17;;;;;;;;;;5113982;28;20077;-57
2023/07/21 08:31:22;;;;;;;3.00;1.23;;;;;;;;;;5113864;28;20160;-58
2023/07/21 08:33:50;;;;;;;3.60;0.93;;;;;;;;;;5113483;28;20019;-58
2023/07/21 08:36:17;;;;;;;3.87;0.87;;;;;;;;;;5113401;28;20028;-57
2023/07/21 08:38:44;;;;;;;6.57;1.17;;;;;;;;;;5108277;28;20031;-57
2023/07/21 08:41:14;;;;;;;1.97;0.60;;;;;;;;;;5107528;28;20264;-57
2023/07/21 08:43:41;;;;;;;5.70;0.70;;;;;;;;;;5108263;28;20446;-57
2023/07/21 08:46:09;;;;;;;1.67;1.23;;;;;;;;;;5107996;28;20028;-58
2023/07/21 08:48:36;;;;;;;2.47;1.07;;;;;;;;;;5113306;28;20027;-57
2023/07/21 08:51:06;;;;;;;3.47;1.23;;;;;;;;;;5113553;28;20072;-57
2023/07/21 08:53:32;;;;;;;1.40;0.53;;;;;;;;;;5113035;28;20039;-57
2023/07/21 08:56:00;;;;;;;1.37;0.90;;;;;;;;;;5113562;28;20489;-57
2023/07/21 08:58:28;;;;;;;0.57;0.53;;;;;;;;;;5113339;28;20072;-57
2023/07/21 09:00:55;;;;;;;0.67;0.47;;;;;;;;;;5107993;28;20055;-58
2023/07/21 09:03:26;;;;;;;1.57;0.70;;;;;;;;;;5108096;28;20152;-57
2023/07/21 09:05:55;;;;;;;0.87;0.70;;;;;;;;;;5107975;28;20368;-57
2023/07/21 09:08:23;;;;;;;3.60;0.90;;;;;;;;;;5107915;28;20031;-57
2023/07/21 09:10:50;;;;;;;0.80;0.60;;;;;;;;;;5112785;28;20016;-57
2023/07/21 09:13:18;;;;;;;1.70;0.97;;;;;;;;;;5113222;28;20020;-57
2023/07/21 09:15:57;;;;;;;3.50;1.67;;;;;;;;;;5113196;28;20115;-57
2023/07/21 09:18:25;;;;;;;1.40;0.73;;;;;;;;;;5112667;28;20533;-57
2023/07/21 09:20:52;;;;;;;0.70;0.70;;;;;;;;;;5112833;28;20068;-57
2023/07/21 09:23:20;;;;;;;1.63;0.93;;;;;;;;;;5107854;28;20034;-57
2023/07/21 09:25:54;;;;;;;1.77;0.80;;;;;;;;;;5107628;28;20035;-57
2023/07/21 09:28:21;;;;;;;3.40;1.10;;;;;;;;;;5089300;28;20104;-57
2023/07/21 09:30:50;;;;;;;0.87;0.70;;;;;;;;;;5107542;28;20020;-57
2023/07/21 09:33:22;;;;;;;2.17;0.80;;;;;;;;;;5112944;28;20020;-57
2023/07/21 09:35:49;;;;;;;0.73;0.60;;;;;;;;;;5112781;28;20080;-58
2023/07/21 09:38:16;;;;;;;1.53;0.87;;;;;;;;;;5112734;28;20039;-57
2023/07/21 09:40:43;;;;;;;4.97;1.30;;;;;;;;;;5112828;28;20027;-57
2023/07/21 09:43:10;;;;;;;5.20;1.20;;;;;;;;;;5112372;28;20043;-57
2023/07/21 09:45:38;;;;;;;1.00;0.80;;;;;;;;;;5107220;28;20020;-57
2023/07/21 09:48:05;;;;;;;2.13;1.03;;;;;;;;;;5107096;28;20126;-57
2023/07/21 09:50:32;;;;;;;4.50;0.90;;;;;;;;;;5107197;28;20035;-58
2023/07/21 09:52:58;;;;;;;1.30;0.70;;;;;;;;;;5106916;28;20054;-57
2023/07/21 09:55:27;;;;;;;0.53;0.53;;;;;;;;;;5112367;28;20027;-58
2023/07/21 09:57:54;;;;;;;1.20;0.80;;;;;;;;;;5112560;28;20032;-57
2023/07/21 10:00:24;;;;;;;1.53;1.00;;;;;;;;;;5112569;28;20024;-57
2023/07/21 10:02:51;;;;;;;2.40;0.77;;;;;;;;;;5112085;28;20483;-57
2023/07/21 10:05:18;;;;;;;1.17;0.50;;;;;;;;;;5112511;28;20508;-57
2023/07/21 10:07:47;;;;;;;4.37;0.97;;;;;;;;;;5106999;28;20042;-57
2023/07/21 10:10:14;;;;;;;2.50;1.23;;;;;;;;;;5107315;28;20470;-57
2023/07/21 10:12:52;;;;;;;1.43;1.07;;;;;;;;;;5107195;28;20028;-57
2023/07/21 10:15:40;;;;;;;1.17;0.80;;;;;;;;;;5107004;28;20115;-58
2023/07/21 10:18:09;;;;;;;0.40;0.40;;;;;;;;;;5112045;28;20445;-57
2023/07/21 10:20:43;;;;;;;1.47;0.90;;;;;;;;;;5112524;28;20413;-57
2023/07/21 10:23:11;;;;;;;1.30;0.93;;;;;;;;;;5112426;28;20062;-57
2023/07/21 10:25:48;;;;;;;1.27;0.87;;;;;;;;;;5112128;28;20020;-57
2023/07/21 10:28:15;;;;;;;1.47;1.00;;;;;;;;;;5110656;28;20509;-57
2023/07/21 10:30:42;;;;;;;1.53;1.13;;;;;;;;;;5106799;28;20028;-57
2023/07/21 10:33:20;;;;;;;1.57;0.70;;;;;;;;;;5106841;28;20030;-57
2023/07/21 10:35:48;;;;;;;0.53;0.53;;;;;;;;;;5106822;28;20036;-57
2023/07/21 10:38:14;;;;;;;0.87;0.70;;;;;;;;;;5107616;28;20355;-57
2023/07/21 10:40:42;;;;;;;1.23;0.80;;;;;;;;;;5112081;28;20020;-57
2023/07/21 10:43:09;;;;;;;1.47;0.73;;;;;;;;;;5112247;28;20055;-57
2023/07/21 10:45:35;;;;;;;1.53;0.67;;;;;;;;;;5112369;28;20031;-57
2023/07/21 10:48:16;;;;;;;0.77;0.53;;;;;;;;;;5112305;28;20478;-57
2023/07/21 10:50:51;;;;;;;1.27;0.83;;;;;;;;;;5109685;28;20077;-57
2023/07/21 10:53:18;;;;;;;1.13;0.85;;;;;;;;;;5106379;28;20042;-57
2023/07/21 10:55:45;;;;;;;3.10;1.17;;;;;;;;;;5106738;28;20031;-57
2023/07/21 10:58:12;;;;;;;1.93;0.80;;;;;;;;;;5106735;28;20410;-57
2023/07/21 11:00:49;;;;;;;2.87;0.97;;;;;;;;;;5108319;28;20016;-57
2023/07/21 11:03:17;;;;;;;1.73;0.80;;;;;;;;;;5112893;28;20116;-58
2023/07/21 11:05:44;;;;;;;1.67;0.90;;;;;;;;;;5115626;28;20493;-57
2023/07/21 11:08:11;;;;;;;0.50;0.40;;;;;;;;;;5115600;28;20061;-57
2023/07/21 11:10:38;;;;;;;4.30;0.70;;;;;;;;;;5115363;28;20051;-57
2023/07/21 11:13:05;;;;;;;0.97;0.83;;;;;;;;;;5113189;28;20019;-57
2023/07/21 11:15:32;;;;;;;0.97;0.63;;;;;;;;;;5109975;28;20381;-58
2023/07/21 11:18:05;;;;;;;2.17;0.87;;;;;;;;;;5110056;28;20034;-57
2023/07/21 11:20:32;;;;;;;3.83;1.40;;;;;;;;;;5109887;28;20070;-57
2023/07/21 11:22:59;;;;;;;1.03;0.70;;;;;;;;;;5111542;28;20041;-57
2023/07/21 11:25:26;;;;;;;1.33;0.50;;;;;;;;;;5115401;28;20068;-56
2023/07/21 11:27:53;;;;;;;1.00;0.80;;;;;;;;;;5115115;28;20497;-57
2023/07/21 11:30:20;;;;;;;14.33;1.43;;;;;;;;;;5115308;28;20089;-57
2023/07/21 11:32:47;;;;;;;1.10;0.70;;;;;;;;;;5115047;28;20042;-57
2023/07/21 11:35:14;;;;;;;1.43;0.87;;;;;;;;;;5113189;28;20028;-57
2023/07/21 11:37:45;;;;;;;1.10;0.87;;;;;;;;;;5109314;28;20498;-57
2023/07/21 11:40:16;;;;;;;2.53;1.10;;;;;;;;;;5109597;28;20019;-57
2023/07/21 11:42:46;;;;;;;13.37;1.63;;;;;;;;;;5109784;28;20024;-57
2023/07/21 11:45:33;;;;;;;0.93;0.60;;;;;;;;;;5111180;28;20020;-57
2023/07/21 11:48:03;;;;;;;1.93;1.23;;;;;;;;;;5114766;28;20031;-57
2023/07/21 11:50:30;;;;;;;2.13;1.20;;;;;;;;;;5114772;28;20024;-57
2023/07/21 11:52:59;;;;;;;1.77;1.20;;;;;;;;;;5114495;28;20032;-57
2023/07/21 11:55:26;;;;;;;1.27;0.80;;;;;;;;;;5114702;28;20023;-58
2023/07/21 11:57:53;;;;;;;1.17;0.80;;;;;;;;;;5111611;28;20074;-57
2023/07/21 12:00:20;;;;;;;2.23;1.27;;;;;;;;;;5109159;28;20028;-57
2023/07/21 12:02:47;;;;;;;2.80;1.37;;;;;;;;;;5108735;28;20063;-57
2023/07/21 12:05:13;;;;;;;1.43;0.93;;;;;;;;;;5109263;28;20043;-57
2023/07/21 12:07:42;;;;;;;10.13;1.17;;;;;;;;;;5111357;28;20016;-57
2023/07/21 12:10:09;;;;;;;1.27;1.00;;;;;;;;;;5114167;28;20115;-57
2023/07/21 12:12:37;;;;;;;1.03;0.77;;;;;;;;;;5114206;28;20062;-57
2023/07/21 12:15:06;;;;;;;2.57;1.10;;;;;;;;;;5113882;28;20056;-57
2023/07/21 12:17:34;;;;;;;1.60;0.77;;;;;;;;;;5113594;28;20059;-57
2023/07/21 12:20:01;;;;;;;3.63;1.07;;;;;;;;;;5111475;28;20020;-57
2023/07/21 12:22:28;;;;;;;1.03;0.90;;;;;;;;;;5108796;28;20030;-56
2023/07/21 12:24:54;;;;;;;2.93;0.90;;;;;;;;;;5090474;28;20035;-57
2023/07/21 12:27:21;;;;;;;1.53;0.80;;;;;;;;;;5108886;28;20016;-57
2023/07/21 12:29:48;;;;;;;1.40;0.80;;;;;;;;;;5110670;28;20016;-57
2023/07/21 12:32:15;;;;;;;2.87;0.83;;;;;;;;;;5113589;28;20076;-57
2023/07/21 12:34:41;;;;;;;1.23;0.50;;;;;;;;;;5113756;28;20028;-56
2023/07/21 12:37:08;;;;;;;1.67;1.17;;;;;;;;;;5113671;28;20053;-57
2023/07/21 12:39:36;;;;;;;1.57;1.00;;;;;;;;;;5113603;28;20039;-57
2023/07/21 12:42:03;;;;;;;3.73;1.53;;;;;;;;;;5111254;28;20024;-58
2023/07/21 12:44:30;;;;;;;2.00;1.37;;;;;;;;;;5108493;28;20467;-56
2023/07/21 12:46:56;;;;;;;1.63;0.97;;;;;;;;;;5108119;28;20023;-56
2023/07/21 12:49:23;;;;;;;1.97;1.07;;;;;;;;;;5107914;28;20020;-57
2023/07/21 12:51:50;;;;;;;1.37;0.97;;;;;;;;;;5109353;28;20015;-57
2023/07/21 12:54:17;;;;;;;1.00;0.77;;;;;;;;;;5093204;28;20028;-56
2023/07/21 12:56:44;;;;;;;1.43;0.97;;;;;;;;;;5093292;28;20531;-57
2023/07/21 12:59:10;;;;;;;3.00;1.23;;;;;;;;;;5093108;28;20032;-57
2023/07/21 13:01:37;;;;;;;3.37;1.43;;;;;;;;;;5093179;28;20031;-57
2023/07/21 13:04:04;;;;;;;1.27;1.00;;;;;;;;;;5091254;28;20020;-57
2023/07/21 13:06:31;;;;;;;1.10;0.77;;;;;;;;;;5087413;28;20110;-57
2023/07/21 13:08:58;;;;;;;3.07;1.27;;;;;;;;;;5087479;28;20527;-57
2023/07/21 13:11:25;;;;;;;0.80;0.73;;;;;;;;;;5087649;28;20043;-57
2023/07/21 13:13:52;;;;;;;4.33;1.40;;;;;;;;;;5088447;28;20470;-57
2023/07/21 13:16:19;;;;;;;1.03;0.80;;;;;;;;;;5092818;28;20023;-57
2023/07/21 13:18:45;;;;;;;2.27;1.57;;;;;;;;;;5092709;28;20483;-57
2023/07/21 13:21:12;;;;;;;3.70;1.30;;;;;;;;;;5092411;28;20055;-57
2023/07/21 13:23:39;;;;;;;7.50;1.27;;;;;;;;;;5092551;28;20411;-57
2023/07/21 13:26:06;;;;;;;1.77;1.07;;;;;;;;;;5090659;28;20718;-57
2023/07/21 13:28:33;;;;;;;0.83;0.77;;;;;;;;;;5087370;28;20032;-57
2023/07/21 13:31:00;;;;;;;3.77;1.63;;;;;;;;;;5087292;28;20017;-57
2023/07/21 13:33:27;;;;;;;1.03;0.83;;;;;;;;;;5087208;28;20028;-57
2023/07/21 13:35:54;;;;;;;3.27;1.40;;;;;;;;;;5087750;28;20020;-57
2023/07/21 13:38:20;;;;;;;1.67;1.17;;;;;;;;;;5091913;28;20139;-57
2023/07/21 13:40:47;;;;;;;2.30;1.67;;;;;;;;;;5092552;28;20027;-57
2023/07/21 13:43:14;;;;;;;3.03;1.60;;;;;;;;;;5092420;28;20039;-57
2023/07/21 13:45:41;;;;;;;2.17;1.40;;;;;;;;;;5092426;28;20024;-57
2023/07/21 13:48:08;;;;;;;4.33;1.53;;;;;;;;;;5091698;28;20100;-56
2023/07/21 13:50:34;;;;;;;1.90;1.13;;;;;;;;;;5086899;28;20039;-57
2023/07/21 13:53:01;;;;;;;3.80;1.27;;;;;;;;;;5096678;28;20115;-57
2023/07/21 13:55:28;;;;;;;2.87;1.33;;;;;;;;;;5107038;28;20015;-57
2023/07/21 13:57:55;;;;;;;4.03;0.90;;;;;;;;;;5107232;28;20087;-57
2023/07/21 14:00:21;;;;;;;9.53;0.97;;;;;;;;;;5094235;28;20027;-57
2023/07/21 14:02:48;;;;;;;1.00;0.77;;;;;;;;;;5112429;28;20039;-57
2023/07/21 14:05:16;;;;;;;2.07;1.07;;;;;;;;;;5112656;28;20031;-57
2023/07/21 14:07:44;;;;;;;5.77;1.53;;;;;;;;;;5112524;28;20016;-57
2023/07/21 14:10:12;;;;;;;3.53;1.43;;;;;;;;;;5111867;28;20020;-57
2023/07/21 14:12:39;;;;;;;7.70;1.33;;;;;;;;;;5107070;28;20019;-57
2023/07/21 14:15:08;;;;;;;1.77;1.17;;;;;;;;;;5107268;28;20152;-57
2023/07/21 14:17:35;;;;;;;5.53;1.50;;;;;;;;;;5106888;28;20047;-57
2023/07/21 14:20:05;;;;;;;3.57;1.40;;;;;;;;;;5107164;28;20126;-57
2023/07/21 14:22:32;;;;;;;2.93;1.47;;;;;;;;;;5112359;28;20032;-57
2023/07/21 14:24:59;;;;;;;1.70;1.10;;;;;;;;;;5112138;28;20471;-57
2023/07/21 14:27:25;;;;;;;3.67;1.60;;;;;;;;;;5112398;28;20030;-57
2023/07/21 14:29:52;;;;;;;5.50;2.53;;;;;;;;;;5112317;28;20027;-57
2023/07/21 14:32:19;;;;;;;2.77;1.73;;;;;;;;;;5112282;28;20475;-57
2023/07/21 14:34:46;;;;;;;5.17;1.40;;;;;;;;;;5106812;28;20028;-57
2023/07/21 14:37:13;;;;;;;5.77;1.70;;;;;;;;;;5107805;28;20032;-57
2023/07/21 14:39:40;;;;;;;6.70;1.70;;;;;;;;;;5110780;28;20076;-57
2023/07/21 14:42:07;;;;;;;2.07;1.43;;;;;;;;;;5109959;28;20020;-57
2023/07/21 14:44:35;;;;;;;11.73;2.03;;;;;;;;;;5115620;28;20031;-57
2023/07/21 14:47:03;;;;;;;2.77;1.80;;;;;;;;;;5115654;28;20448;-57